sensor_id;sensor_type;location;lat;lon;timestamp;P1;durP1;ratioP1;P2;durP2;ratioP2
39738;SDS011;25422;48.286;8.484;2022-10-30T00:02:13;14.48;;;4.60;;
39738;SDS011;25422;48.286;8.484;2022-10-30T00:04:39;12.88;;;5.10;;
39738;SDS011;25422;48.286;8.484;2022-10-30T00:07:04;15.32;;;5.05;;
39738;SDS011;25422;48.286;8.484;2022-10-30T00:09:30;15.32;;;4.82;;
39738;SDS011;25422;48.286;8.484;2022-10-30T00:11:55;15.82;;;5.57;;
39738;SDS011;25422;48.286;8.484;2022-10-30T00:14:20;12.98;;;4.78;;
39738;SDS011;25422;48.286;8.484;2022-10-30T00:16:46;23.35;;;5.88;;
39738;SDS011;25422;48.286;8.484;2022-10-30T00:19:11;12.43;;;4.93;;
39738;SDS011;25422;48.286;8.484;2022-10-30T00:21:37;12.95;;;5.80;;
39738;SDS011;25422;48.286;8.484;2022-10-30T00:24:02;16.50;;;5.38;;
39738;SDS011;25422;48.286;8.484;2022-10-30T00:26:28;18.50;;;5.10;;
39738;SDS011;25422;48.286;8.484;2022-10-30T00:28:54;13.88;;;5.00;;
39738;SDS011;25422;48.286;8.484;2022-10-30T00:31:20;20.30;;;5.68;;
39738;SDS011;25422;48.286;8.484;2022-10-30T00:33:50;11.35;;;4.90;;
39738;SDS011;25422;48.286;8.484;2022-10-30T00:36:17;16.27;;;5.18;;
39738;SDS011;25422;48.286;8.484;2022-10-30T00:38:43;17.00;;;5.55;;
39738;SDS011;25422;48.286;8.484;2022-10-30T00:41:17;13.25;;;4.70;;
39738;SDS011;25422;48.286;8.484;2022-10-30T00:43:45;10.30;;;5.05;;
39738;SDS011;25422;48.286;8.484;2022-10-30T00:48:39;10.45;;;5.07;;
39738;SDS011;25422;48.286;8.484;2022-10-30T00:51:09;16.20;;;5.03;;
39738;SDS011;25422;48.286;8.484;2022-10-30T00:53:36;12.93;;;4.68;;
39738;SDS011;25422;48.286;8.484;2022-10-30T00:56:04;15.55;;;5.22;;
39738;SDS011;25422;48.286;8.484;2022-10-30T00:58:37;13.55;;;4.90;;
39738;SDS011;25422;48.286;8.484;2022-10-30T01:01:07;19.38;;;6.00;;
39738;SDS011;25422;48.286;8.484;2022-10-30T01:03:35;14.90;;;4.90;;
39738;SDS011;25422;48.286;8.484;2022-10-30T01:06:03;13.90;;;5.13;;
39738;SDS011;25422;48.286;8.484;2022-10-30T01:08:33;16.58;;;5.05;;
39738;SDS011;25422;48.286;8.484;2022-10-30T01:10:59;11.05;;;5.25;;
39738;SDS011;25422;48.286;8.484;2022-10-30T01:13:26;17.70;;;5.63;;
39738;SDS011;25422;48.286;8.484;2022-10-30T01:16:02;16.92;;;5.13;;
39738;SDS011;25422;48.286;8.484;2022-10-30T01:21:29;14.67;;;5.00;;
39738;SDS011;25422;48.286;8.484;2022-10-30T01:27:11;11.88;;;5.07;;
39738;SDS011;25422;48.286;8.484;2022-10-30T01:35:39;14.38;;;4.60;;
39738;SDS011;25422;48.286;8.484;2022-10-30T01:38:09;12.80;;;5.05;;
39738;SDS011;25422;48.286;8.484;2022-10-30T01:40:36;17.20;;;5.68;;
39738;SDS011;25422;48.286;8.484;2022-10-30T01:43:03;17.90;;;5.85;;
39738;SDS011;25422;48.286;8.484;2022-10-30T01:45:35;13.77;;;5.60;;
39738;SDS011;25422;48.286;8.484;2022-10-30T01:48:43;19.80;;;4.90;;
39738;SDS011;25422;48.286;8.484;2022-10-30T01:59:46;16.30;;;5.43;;
39738;SDS011;25422;48.286;8.484;2022-10-30T02:02:23;12.23;;;5.60;;
39738;SDS011;25422;48.286;8.484;2022-10-30T02:04:49;11.13;;;4.75;;
39738;SDS011;25422;48.286;8.484;2022-10-30T02:07:15;16.55;;;5.05;;
39738;SDS011;25422;48.286;8.484;2022-10-30T02:09:46;17.73;;;5.18;;
39738;SDS011;25422;48.286;8.484;2022-10-30T02:12:14;16.40;;;4.63;;
39738;SDS011;25422;48.286;8.484;2022-10-30T02:14:42;16.35;;;5.95;;
39738;SDS011;25422;48.286;8.484;2022-10-30T02:17:11;12.45;;;4.80;;
39738;SDS011;25422;48.286;8.484;2022-10-30T02:19:37;14.57;;;4.78;;
39738;SDS011;25422;48.286;8.484;2022-10-30T02:22:03;14.77;;;5.07;;
39738;SDS011;25422;48.286;8.484;2022-10-30T02:24:30;15.02;;;4.85;;
39738;SDS011;25422;48.286;8.484;2022-10-30T02:26:57;17.30;;;5.57;;
39738;SDS011;25422;48.286;8.484;2022-10-30T02:29:22;20.08;;;5.18;;
39738;SDS011;25422;48.286;8.484;2022-10-30T02:31:48;14.27;;;4.95;;
39738;SDS011;25422;48.286;8.484;2022-10-30T02:34:14;13.05;;;4.63;;
39738;SDS011;25422;48.286;8.484;2022-10-30T02:36:39;18.17;;;4.90;;
39738;SDS011;25422;48.286;8.484;2022-10-30T02:39:05;16.95;;;5.28;;
39738;SDS011;25422;48.286;8.484;2022-10-30T02:41:33;16.17;;;5.13;;
39738;SDS011;25422;48.286;8.484;2022-10-30T02:43:59;19.92;;;5.10;;
39738;SDS011;25422;48.286;8.484;2022-10-30T02:46:24;14.15;;;5.20;;
39738;SDS011;25422;48.286;8.484;2022-10-30T02:48:50;16.42;;;5.63;;
39738;SDS011;25422;48.286;8.484;2022-10-30T02:51:15;13.45;;;4.53;;
39738;SDS011;25422;48.286;8.484;2022-10-30T02:53:41;18.52;;;5.78;;
39738;SDS011;25422;48.286;8.484;2022-10-30T02:56:11;14.88;;;5.32;;
39738;SDS011;25422;48.286;8.484;2022-10-30T02:58:39;15.65;;;5.38;;
39738;SDS011;25422;48.286;8.484;2022-10-30T03:03:33;17.83;;;5.38;;
39738;SDS011;25422;48.286;8.484;2022-10-30T03:05:59;17.65;;;5.22;;
39738;SDS011;25422;48.286;8.484;2022-10-30T03:08:26;15.10;;;4.78;;
39738;SDS011;25422;48.286;8.484;2022-10-30T03:10:51;13.32;;;5.20;;
39738;SDS011;25422;48.286;8.484;2022-10-30T03:13:23;13.45;;;5.88;;
39738;SDS011;25422;48.286;8.484;2022-10-30T03:15:50;15.45;;;5.18;;
39738;SDS011;25422;48.286;8.484;2022-10-30T03:18:15;13.90;;;5.60;;
39738;SDS011;25422;48.286;8.484;2022-10-30T03:20:41;16.60;;;5.32;;
39738;SDS011;25422;48.286;8.484;2022-10-30T03:23:07;14.52;;;5.38;;
39738;SDS011;25422;48.286;8.484;2022-10-30T03:25:32;11.45;;;5.10;;
39738;SDS011;25422;48.286;8.484;2022-10-30T03:27:59;15.90;;;5.90;;
39738;SDS011;25422;48.286;8.484;2022-10-30T03:30:25;12.13;;;5.03;;
39738;SDS011;25422;48.286;8.484;2022-10-30T03:32:51;16.88;;;5.93;;
39738;SDS011;25422;48.286;8.484;2022-10-30T03:35:16;13.90;;;5.72;;
39738;SDS011;25422;48.286;8.484;2022-10-30T03:37:42;13.05;;;5.60;;
39738;SDS011;25422;48.286;8.484;2022-10-30T03:40:07;15.13;;;5.53;;
39738;SDS011;25422;48.286;8.484;2022-10-30T03:42:38;13.57;;;5.72;;
39738;SDS011;25422;48.286;8.484;2022-10-30T03:45:04;11.15;;;5.45;;
39738;SDS011;25422;48.286;8.484;2022-10-30T03:47:30;14.82;;;5.28;;
39738;SDS011;25422;48.286;8.484;2022-10-30T03:49:55;12.98;;;5.15;;
39738;SDS011;25422;48.286;8.484;2022-10-30T03:52:21;11.95;;;5.57;;
39738;SDS011;25422;48.286;8.484;2022-10-30T03:54:48;17.17;;;6.50;;
39738;SDS011;25422;48.286;8.484;2022-10-30T03:57:16;12.20;;;5.18;;
39738;SDS011;25422;48.286;8.484;2022-10-30T03:59:56;16.67;;;5.63;;
39738;SDS011;25422;48.286;8.484;2022-10-30T04:02:39;14.77;;;5.93;;
39738;SDS011;25422;48.286;8.484;2022-10-30T04:05:09;15.68;;;5.25;;
39738;SDS011;25422;48.286;8.484;2022-10-30T04:07:34;12.45;;;4.95;;
39738;SDS011;25422;48.286;8.484;2022-10-30T04:10:00;12.02;;;5.40;;
39738;SDS011;25422;48.286;8.484;2022-10-30T04:12:27;21.20;;;5.70;;
39738;SDS011;25422;48.286;8.484;2022-10-30T04:14:52;17.52;;;5.82;;
39738;SDS011;25422;48.286;8.484;2022-10-30T04:17:18;17.60;;;5.82;;
39738;SDS011;25422;48.286;8.484;2022-10-30T04:19:43;13.73;;;5.45;;
39738;SDS011;25422;48.286;8.484;2022-10-30T04:22:09;16.48;;;5.68;;
39738;SDS011;25422;48.286;8.484;2022-10-30T04:24:36;11.05;;;5.50;;
39738;SDS011;25422;48.286;8.484;2022-10-30T04:27:03;17.33;;;5.38;;
39738;SDS011;25422;48.286;8.484;2022-10-30T04:29:29;13.55;;;4.95;;
39738;SDS011;25422;48.286;8.484;2022-10-30T04:31:55;14.32;;;4.95;;
39738;SDS011;25422;48.286;8.484;2022-10-30T04:34:21;12.43;;;5.70;;
39738;SDS011;25422;48.286;8.484;2022-10-30T04:36:46;12.45;;;5.25;;
39738;SDS011;25422;48.286;8.484;2022-10-30T04:39:12;17.77;;;6.28;;
39738;SDS011;25422;48.286;8.484;2022-10-30T04:41:38;13.45;;;6.13;;
39738;SDS011;25422;48.286;8.484;2022-10-30T04:44:12;13.45;;;5.75;;
39738;SDS011;25422;48.286;8.484;2022-10-30T04:46:38;13.13;;;5.85;;
39738;SDS011;25422;48.286;8.484;2022-10-30T04:49:08;19.27;;;5.68;;
39738;SDS011;25422;48.286;8.484;2022-10-30T04:51:33;16.92;;;5.85;;
39738;SDS011;25422;48.286;8.484;2022-10-30T04:54:00;16.35;;;6.10;;
39738;SDS011;25422;48.286;8.484;2022-10-30T04:56:28;13.65;;;5.72;;
39738;SDS011;25422;48.286;8.484;2022-10-30T04:58:53;21.10;;;6.00;;
39738;SDS011;25422;48.286;8.484;2022-10-30T05:01:19;13.57;;;5.55;;
39738;SDS011;25422;48.286;8.484;2022-10-30T05:03:44;14.82;;;6.05;;
39738;SDS011;25422;48.286;8.484;2022-10-30T05:06:23;16.00;;;6.45;;
39738;SDS011;25422;48.286;8.484;2022-10-30T05:08:50;13.55;;;5.47;;
39738;SDS011;25422;48.286;8.484;2022-10-30T05:11:26;14.85;;;5.45;;
39738;SDS011;25422;48.286;8.484;2022-10-30T05:13:51;13.68;;;5.75;;
39738;SDS011;25422;48.286;8.484;2022-10-30T05:16:17;13.88;;;5.18;;
39738;SDS011;25422;48.286;8.484;2022-10-30T05:18:42;13.35;;;5.90;;
39738;SDS011;25422;48.286;8.484;2022-10-30T05:21:08;12.48;;;5.07;;
39738;SDS011;25422;48.286;8.484;2022-10-30T05:23:33;10.23;;;5.43;;
39738;SDS011;25422;48.286;8.484;2022-10-30T05:25:59;13.25;;;6.10;;
39738;SDS011;25422;48.286;8.484;2022-10-30T05:28:25;16.60;;;5.60;;
39738;SDS011;25422;48.286;8.484;2022-10-30T05:30:55;13.65;;;5.35;;
39738;SDS011;25422;48.286;8.484;2022-10-30T05:33:39;14.35;;;5.00;;
39738;SDS011;25422;48.286;8.484;2022-10-30T05:36:04;15.23;;;5.03;;
39738;SDS011;25422;48.286;8.484;2022-10-30T05:38:30;12.70;;;4.68;;
39738;SDS011;25422;48.286;8.484;2022-10-30T05:40:56;16.10;;;5.20;;
39738;SDS011;25422;48.286;8.484;2022-10-30T05:43:21;10.95;;;5.35;;
39738;SDS011;25422;48.286;8.484;2022-10-30T05:45:47;14.50;;;5.78;;
39738;SDS011;25422;48.286;8.484;2022-10-30T05:48:14;15.82;;;5.90;;
39738;SDS011;25422;48.286;8.484;2022-10-30T05:50:43;16.90;;;5.30;;
39738;SDS011;25422;48.286;8.484;2022-10-30T05:53:20;9.98;;;5.05;;
39738;SDS011;25422;48.286;8.484;2022-10-30T05:55:46;10.38;;;4.90;;
39738;SDS011;25422;48.286;8.484;2022-10-30T05:58:17;12.00;;;4.85;;
39738;SDS011;25422;48.286;8.484;2022-10-30T06:00:44;18.30;;;5.20;;
39738;SDS011;25422;48.286;8.484;2022-10-30T06:03:14;20.50;;;5.30;;
39738;SDS011;25422;48.286;8.484;2022-10-30T06:05:42;12.75;;;5.05;;
39738;SDS011;25422;48.286;8.484;2022-10-30T06:08:09;9.88;;;5.03;;
39738;SDS011;25422;48.286;8.484;2022-10-30T06:10:35;15.35;;;5.25;;
39738;SDS011;25422;48.286;8.484;2022-10-30T06:13:13;18.73;;;6.38;;
39738;SDS011;25422;48.286;8.484;2022-10-30T06:15:59;18.30;;;5.25;;
39738;SDS011;25422;48.286;8.484;2022-10-30T06:18:33;12.82;;;5.15;;
39738;SDS011;25422;48.286;8.484;2022-10-30T06:21:07;17.83;;;5.15;;
39738;SDS011;25422;48.286;8.484;2022-10-30T06:24:02;11.85;;;4.68;;
39738;SDS011;25422;48.286;8.484;2022-10-30T06:26:40;10.55;;;5.20;;
39738;SDS011;25422;48.286;8.484;2022-10-30T06:29:09;14.50;;;4.97;;
39738;SDS011;25422;48.286;8.484;2022-10-30T06:31:34;13.40;;;5.25;;
39738;SDS011;25422;48.286;8.484;2022-10-30T06:34:00;9.40;;;5.10;;
39738;SDS011;25422;48.286;8.484;2022-10-30T06:36:27;15.88;;;4.93;;
39738;SDS011;25422;48.286;8.484;2022-10-30T06:38:53;10.20;;;5.25;;
39738;SDS011;25422;48.286;8.484;2022-10-30T06:41:22;11.73;;;4.82;;
39738;SDS011;25422;48.286;8.484;2022-10-30T06:44:00;13.02;;;5.55;;
39738;SDS011;25422;48.286;8.484;2022-10-30T06:46:29;10.70;;;4.82;;
39738;SDS011;25422;48.286;8.484;2022-10-30T06:48:55;12.07;;;4.47;;
39738;SDS011;25422;48.286;8.484;2022-10-30T06:51:21;11.02;;;4.35;;
39738;SDS011;25422;48.286;8.484;2022-10-30T06:53:46;12.63;;;4.28;;
39738;SDS011;25422;48.286;8.484;2022-10-30T06:56:32;8.43;;;4.40;;
39738;SDS011;25422;48.286;8.484;2022-10-30T06:59:27;11.52;;;5.30;;
39738;SDS011;25422;48.286;8.484;2022-10-30T07:02:09;13.15;;;4.97;;
39738;SDS011;25422;48.286;8.484;2022-10-30T07:04:54;14.80;;;4.90;;
39738;SDS011;25422;48.286;8.484;2022-10-30T07:07:20;11.77;;;4.38;;
39738;SDS011;25422;48.286;8.484;2022-10-30T07:09:45;11.35;;;4.45;;
39738;SDS011;25422;48.286;8.484;2022-10-30T07:12:12;10.48;;;4.63;;
39738;SDS011;25422;48.286;8.484;2022-10-30T07:15:07;15.45;;;4.63;;
39738;SDS011;25422;48.286;8.484;2022-10-30T07:18:05;8.95;;;3.85;;
39738;SDS011;25422;48.286;8.484;2022-10-30T07:20:34;10.40;;;4.40;;
39738;SDS011;25422;48.286;8.484;2022-10-30T07:23:00;11.20;;;4.22;;
39738;SDS011;25422;48.286;8.484;2022-10-30T07:25:26;10.00;;;4.50;;
39738;SDS011;25422;48.286;8.484;2022-10-30T07:28:03;9.23;;;3.70;;
39738;SDS011;25422;48.286;8.484;2022-10-30T07:30:48;9.82;;;4.03;;
39738;SDS011;25422;48.286;8.484;2022-10-30T07:33:46;10.98;;;4.53;;
39738;SDS011;25422;48.286;8.484;2022-10-30T07:36:27;13.18;;;4.28;;
39738;SDS011;25422;48.286;8.484;2022-10-30T07:39:09;11.43;;;4.32;;
39738;SDS011;25422;48.286;8.484;2022-10-30T07:41:39;10.00;;;3.97;;
39738;SDS011;25422;48.286;8.484;2022-10-30T07:44:30;12.57;;;4.38;;
39738;SDS011;25422;48.286;8.484;2022-10-30T07:47:16;16.65;;;4.30;;
39738;SDS011;25422;48.286;8.484;2022-10-30T07:49:59;10.77;;;3.70;;
39738;SDS011;25422;48.286;8.484;2022-10-30T07:52:29;12.80;;;3.85;;
39738;SDS011;25422;48.286;8.484;2022-10-30T07:54:56;10.65;;;3.80;;
39738;SDS011;25422;48.286;8.484;2022-10-30T07:57:54;10.57;;;3.20;;
39738;SDS011;25422;48.286;8.484;2022-10-30T08:00:49;11.68;;;3.53;;
39738;SDS011;25422;48.286;8.484;2022-10-30T08:03:27;11.50;;;4.07;;
39738;SDS011;25422;48.286;8.484;2022-10-30T08:06:14;8.63;;;4.20;;
39738;SDS011;25422;48.286;8.484;2022-10-30T08:08:50;8.48;;;4.15;;
39738;SDS011;25422;48.286;8.484;2022-10-30T08:11:25;11.98;;;3.80;;
39738;SDS011;25422;48.286;8.484;2022-10-30T08:13:58;13.02;;;4.18;;
39738;SDS011;25422;48.286;8.484;2022-10-30T08:16:24;16.02;;;3.60;;
39738;SDS011;25422;48.286;8.484;2022-10-30T08:18:50;9.95;;;3.42;;
39738;SDS011;25422;48.286;8.484;2022-10-30T08:21:18;9.50;;;4.18;;
39738;SDS011;25422;48.286;8.484;2022-10-30T08:24:05;11.48;;;3.58;;
39738;SDS011;25422;48.286;8.484;2022-10-30T08:26:32;13.13;;;3.40;;
39738;SDS011;25422;48.286;8.484;2022-10-30T08:28:58;8.98;;;3.80;;
39738;SDS011;25422;48.286;8.484;2022-10-30T08:31:25;16.42;;;3.40;;
39738;SDS011;25422;48.286;8.484;2022-10-30T08:34:00;10.48;;;3.83;;
39738;SDS011;25422;48.286;8.484;2022-10-30T08:36:32;9.27;;;3.63;;
39738;SDS011;25422;48.286;8.484;2022-10-30T08:38:57;9.27;;;3.25;;
39738;SDS011;25422;48.286;8.484;2022-10-30T08:41:37;12.70;;;3.05;;
39738;SDS011;25422;48.286;8.484;2022-10-30T08:44:03;9.73;;;3.30;;
39738;SDS011;25422;48.286;8.484;2022-10-30T08:46:45;9.20;;;3.75;;
39738;SDS011;25422;48.286;8.484;2022-10-30T08:49:10;9.45;;;3.60;;
39738;SDS011;25422;48.286;8.484;2022-10-30T08:51:47;8.52;;;3.45;;
39738;SDS011;25422;48.286;8.484;2022-10-30T08:54:13;5.95;;;2.80;;
39738;SDS011;25422;48.286;8.484;2022-10-30T08:56:38;10.70;;;3.03;;
39738;SDS011;25422;48.286;8.484;2022-10-30T08:59:09;9.38;;;3.10;;
39738;SDS011;25422;48.286;8.484;2022-10-30T09:01:35;7.88;;;2.47;;
39738;SDS011;25422;48.286;8.484;2022-10-30T09:04:18;9.18;;;2.50;;
39738;SDS011;25422;48.286;8.484;2022-10-30T09:07:03;11.55;;;3.05;;
39738;SDS011;25422;48.286;8.484;2022-10-30T09:09:48;9.38;;;2.80;;
39738;SDS011;25422;48.286;8.484;2022-10-30T09:12:15;7.93;;;2.58;;
39738;SDS011;25422;48.286;8.484;2022-10-30T09:14:43;11.55;;;2.95;;
39738;SDS011;25422;48.286;8.484;2022-10-30T09:17:10;9.73;;;2.95;;
39738;SDS011;25422;48.286;8.484;2022-10-30T09:19:38;5.88;;;2.67;;
39738;SDS011;25422;48.286;8.484;2022-10-30T09:22:04;9.98;;;2.85;;
39738;SDS011;25422;48.286;8.484;2022-10-30T09:24:31;8.85;;;2.97;;
39738;SDS011;25422;48.286;8.484;2022-10-30T09:27:17;10.20;;;2.88;;
39738;SDS011;25422;48.286;8.484;2022-10-30T09:29:47;6.80;;;2.83;;
39738;SDS011;25422;48.286;8.484;2022-10-30T09:32:21;7.95;;;2.28;;
39738;SDS011;25422;48.286;8.484;2022-10-30T09:35:02;8.98;;;2.85;;
39738;SDS011;25422;48.286;8.484;2022-10-30T09:37:35;10.23;;;2.38;;
39738;SDS011;25422;48.286;8.484;2022-10-30T09:40:05;7.70;;;3.10;;
39738;SDS011;25422;48.286;8.484;2022-10-30T09:42:43;8.52;;;2.70;;
39738;SDS011;25422;48.286;8.484;2022-10-30T09:51:29;8.50;;;2.30;;
39738;SDS011;25422;48.286;8.484;2022-10-30T10:05:34;7.68;;;2.08;;
39738;SDS011;25422;48.286;8.484;2022-10-30T10:08:49;9.52;;;2.45;;
39738;SDS011;25422;48.286;8.484;2022-10-30T10:11:52;11.05;;;2.65;;
39738;SDS011;25422;48.286;8.484;2022-10-30T10:16:53;7.85;;;2.25;;
39738;SDS011;25422;48.286;8.484;2022-10-30T10:21:57;5.72;;;2.50;;
39738;SDS011;25422;48.286;8.484;2022-10-30T10:24:28;9.77;;;2.13;;
39738;SDS011;25422;48.286;8.484;2022-10-30T10:27:13;9.63;;;2.17;;
39738;SDS011;25422;48.286;8.484;2022-10-30T10:30:04;11.18;;;2.20;;
39738;SDS011;25422;48.286;8.484;2022-10-30T10:51:50;6.78;;;2.10;;
39738;SDS011;25422;48.286;8.484;2022-10-30T10:57:01;10.35;;;2.50;;
39738;SDS011;25422;48.286;8.484;2022-10-30T10:59:37;8.52;;;3.13;;
39738;SDS011;25422;48.286;8.484;2022-10-30T11:09:55;6.25;;;2.15;;
39738;SDS011;25422;48.286;8.484;2022-10-30T11:12:24;6.28;;;2.03;;
39738;SDS011;25422;48.286;8.484;2022-10-30T11:14:53;5.97;;;2.15;;
39738;SDS011;25422;48.286;8.484;2022-10-30T11:19:48;8.98;;;2.25;;
39738;SDS011;25422;48.286;8.484;2022-10-30T11:22:20;7.80;;;2.00;;
39738;SDS011;25422;48.286;8.484;2022-10-30T11:24:51;6.53;;;2.40;;
39738;SDS011;25422;48.286;8.484;2022-10-30T11:29:50;8.65;;;2.20;;
39738;SDS011;25422;48.286;8.484;2022-10-30T11:32:19;10.98;;;2.10;;
39738;SDS011;25422;48.286;8.484;2022-10-30T11:35:11;6.40;;;2.20;;
39738;SDS011;25422;48.286;8.484;2022-10-30T11:37:41;13.02;;;2.60;;
39738;SDS011;25422;48.286;8.484;2022-10-30T11:42:34;7.10;;;2.15;;
39738;SDS011;25422;48.286;8.484;2022-10-30T11:45:00;7.78;;;2.05;;
39738;SDS011;25422;48.286;8.484;2022-10-30T11:47:32;8.73;;;1.80;;
39738;SDS011;25422;48.286;8.484;2022-10-30T11:50:00;6.95;;;1.90;;
39738;SDS011;25422;48.286;8.484;2022-10-30T11:52:28;7.65;;;1.75;;
39738;SDS011;25422;48.286;8.484;2022-10-30T11:55:09;4.72;;;1.60;;
39738;SDS011;25422;48.286;8.484;2022-10-30T11:57:47;5.27;;;1.87;;
39738;SDS011;25422;48.286;8.484;2022-10-30T12:00:19;6.68;;;1.85;;
39738;SDS011;25422;48.286;8.484;2022-10-30T12:02:45;7.13;;;1.67;;
39738;SDS011;25422;48.286;8.484;2022-10-30T12:05:30;11.18;;;2.15;;
39738;SDS011;25422;48.286;8.484;2022-10-30T12:10:31;8.23;;;1.90;;
39738;SDS011;25422;48.286;8.484;2022-10-30T12:13:11;11.00;;;2.13;;
39738;SDS011;25422;48.286;8.484;2022-10-30T12:15:39;8.15;;;2.00;;
39738;SDS011;25422;48.286;8.484;2022-10-30T12:18:06;9.95;;;2.13;;
39738;SDS011;25422;48.286;8.484;2022-10-30T12:20:41;8.85;;;1.70;;
39738;SDS011;25422;48.286;8.484;2022-10-30T12:23:17;6.47;;;1.60;;
39738;SDS011;25422;48.286;8.484;2022-10-30T12:25:50;4.88;;;1.58;;
39738;SDS011;25422;48.286;8.484;2022-10-30T12:28:18;6.65;;;1.50;;
39738;SDS011;25422;48.286;8.484;2022-10-30T12:33:22;6.05;;;1.77;;
39738;SDS011;25422;48.286;8.484;2022-10-30T12:35:58;5.57;;;1.77;;
39738;SDS011;25422;48.286;8.484;2022-10-30T12:41:21;5.03;;;1.77;;
39738;SDS011;25422;48.286;8.484;2022-10-30T12:43:57;10.05;;;1.63;;
39738;SDS011;25422;48.286;8.484;2022-10-30T12:49:24;6.70;;;1.60;;
39738;SDS011;25422;48.286;8.484;2022-10-30T12:57:23;7.00;;;1.58;;
39738;SDS011;25422;48.286;8.484;2022-10-30T13:00:03;8.32;;;1.30;;
39738;SDS011;25422;48.286;8.484;2022-10-30T13:02:59;4.30;;;1.85;;
39738;SDS011;25422;48.286;8.484;2022-10-30T13:08:38;5.70;;;1.63;;
39738;SDS011;25422;48.286;8.484;2022-10-30T13:13:49;11.65;;;1.60;;
39738;SDS011;25422;48.286;8.484;2022-10-30T13:16:21;5.45;;;1.48;;
39738;SDS011;25422;48.286;8.484;2022-10-30T13:18:53;5.07;;;1.10;;
39738;SDS011;25422;48.286;8.484;2022-10-30T13:21:23;4.78;;;1.40;;
39738;SDS011;25422;48.286;8.484;2022-10-30T13:31:57;11.68;;;1.75;;
39738;SDS011;25422;48.286;8.484;2022-10-30T13:34:26;6.60;;;1.50;;
39738;SDS011;25422;48.286;8.484;2022-10-30T13:39:35;5.28;;;1.48;;
39738;SDS011;25422;48.286;8.484;2022-10-30T13:53:35;7.40;;;1.73;;
39738;SDS011;25422;48.286;8.484;2022-10-30T13:56:04;3.67;;;1.42;;
39738;SDS011;25422;48.286;8.484;2022-10-30T13:58:33;5.47;;;1.80;;
39738;SDS011;25422;48.286;8.484;2022-10-30T14:01:05;8.25;;;1.67;;
39738;SDS011;25422;48.286;8.484;2022-10-30T14:03:47;7.45;;;1.92;;
39738;SDS011;25422;48.286;8.484;2022-10-30T14:09:10;8.70;;;1.70;;
39738;SDS011;25422;48.286;8.484;2022-10-30T14:11:45;4.30;;;1.45;;
39738;SDS011;25422;48.286;8.484;2022-10-30T14:17:07;6.03;;;1.42;;
39738;SDS011;25422;48.286;8.484;2022-10-30T14:22:31;4.32;;;1.63;;
39738;SDS011;25422;48.286;8.484;2022-10-30T14:24:58;5.85;;;1.67;;
39738;SDS011;25422;48.286;8.484;2022-10-30T14:27:27;6.82;;;1.58;;
39738;SDS011;25422;48.286;8.484;2022-10-30T14:29:54;10.23;;;2.47;;
39738;SDS011;25422;48.286;8.484;2022-10-30T14:37:11;5.60;;;1.80;;
39738;SDS011;25422;48.286;8.484;2022-10-30T14:39:37;5.10;;;2.40;;
39738;SDS011;25422;48.286;8.484;2022-10-30T14:42:06;5.57;;;1.60;;
39738;SDS011;25422;48.286;8.484;2022-10-30T14:56:26;7.85;;;2.42;;
39738;SDS011;25422;48.286;8.484;2022-10-30T14:59:07;7.40;;;2.30;;
39738;SDS011;25422;48.286;8.484;2022-10-30T15:04:25;7.45;;;2.60;;
39738;SDS011;25422;48.286;8.484;2022-10-30T15:09:37;8.32;;;2.80;;
39738;SDS011;25422;48.286;8.484;2022-10-30T15:12:18;6.50;;;2.50;;
39738;SDS011;25422;48.286;8.484;2022-10-30T15:15:04;6.95;;;2.05;;
39738;SDS011;25422;48.286;8.484;2022-10-30T15:17:36;7.55;;;1.73;;
39738;SDS011;25422;48.286;8.484;2022-10-30T15:22:32;7.43;;;2.28;;
39738;SDS011;25422;48.286;8.484;2022-10-30T15:24:59;7.32;;;1.92;;
39738;SDS011;25422;48.286;8.484;2022-10-30T15:27:27;8.07;;;1.70;;
39738;SDS011;25422;48.286;8.484;2022-10-30T15:29:54;6.35;;;1.85;;
39738;SDS011;25422;48.286;8.484;2022-10-30T15:32:23;8.27;;;2.03;;
39738;SDS011;25422;48.286;8.484;2022-10-30T15:37:24;7.57;;;2.72;;
39738;SDS011;25422;48.286;8.484;2022-10-30T15:40:07;4.93;;;2.10;;
39738;SDS011;25422;48.286;8.484;2022-10-30T15:42:43;7.65;;;2.00;;
39738;SDS011;25422;48.286;8.484;2022-10-30T15:45:14;5.57;;;2.22;;
39738;SDS011;25422;48.286;8.484;2022-10-30T15:47:45;6.43;;;1.92;;
39738;SDS011;25422;48.286;8.484;2022-10-30T15:50:15;8.13;;;2.53;;
39738;SDS011;25422;48.286;8.484;2022-10-30T15:52:41;8.25;;;2.78;;
39738;SDS011;25422;48.286;8.484;2022-10-30T15:55:08;5.07;;;2.63;;
39738;SDS011;25422;48.286;8.484;2022-10-30T16:02:46;10.05;;;2.90;;
39738;SDS011;25422;48.286;8.484;2022-10-30T16:05:19;4.13;;;1.80;;
39738;SDS011;25422;48.286;8.484;2022-10-30T16:07:46;8.10;;;2.75;;
39738;SDS011;25422;48.286;8.484;2022-10-30T16:10:13;8.35;;;2.20;;
39738;SDS011;25422;48.286;8.484;2022-10-30T16:12:41;8.07;;;2.47;;
39738;SDS011;25422;48.286;8.484;2022-10-30T16:15:07;9.95;;;2.50;;
39738;SDS011;25422;48.286;8.484;2022-10-30T16:17:47;8.05;;;3.85;;
39738;SDS011;25422;48.286;8.484;2022-10-30T16:20:13;8.73;;;3.13;;
39738;SDS011;25422;48.286;8.484;2022-10-30T16:22:41;7.75;;;2.35;;
39738;SDS011;25422;48.286;8.484;2022-10-30T16:25:06;11.27;;;3.20;;
39738;SDS011;25422;48.286;8.484;2022-10-30T16:30:07;11.68;;;3.00;;
39738;SDS011;25422;48.286;8.484;2022-10-30T16:32:39;7.55;;;2.63;;
39738;SDS011;25422;48.286;8.484;2022-10-30T16:35:05;5.53;;;2.30;;
39738;SDS011;25422;48.286;8.484;2022-10-30T16:37:34;9.80;;;2.47;;
39738;SDS011;25422;48.286;8.484;2022-10-30T16:40:02;5.75;;;1.75;;
39738;SDS011;25422;48.286;8.484;2022-10-30T16:42:36;9.70;;;2.40;;
39738;SDS011;25422;48.286;8.484;2022-10-30T16:47:36;5.93;;;2.15;;
39738;SDS011;25422;48.286;8.484;2022-10-30T16:50:04;9.38;;;2.30;;
39738;SDS011;25422;48.286;8.484;2022-10-30T16:52:34;7.85;;;3.58;;
39738;SDS011;25422;48.286;8.484;2022-10-30T16:55:04;8.10;;;3.60;;
39738;SDS011;25422;48.286;8.484;2022-10-30T16:57:32;8.52;;;3.13;;
39738;SDS011;25422;48.286;8.484;2022-10-30T17:00:01;8.60;;;3.95;;
39738;SDS011;25422;48.286;8.484;2022-10-30T17:02:30;10.57;;;3.80;;
39738;SDS011;25422;48.286;8.484;2022-10-30T17:05:01;6.30;;;2.92;;
39738;SDS011;25422;48.286;8.484;2022-10-30T17:07:58;12.98;;;3.45;;
39738;SDS011;25422;48.286;8.484;2022-10-30T17:10:30;10.95;;;3.45;;
39738;SDS011;25422;48.286;8.484;2022-10-30T17:18:29;8.35;;;2.88;;
39738;SDS011;25422;48.286;8.484;2022-10-30T17:21:00;42.97;;;23.42;;
39738;SDS011;25422;48.286;8.484;2022-10-30T17:23:31;23.13;;;10.98;;
39738;SDS011;25422;48.286;8.484;2022-10-30T17:25:56;10.90;;;4.70;;
39738;SDS011;25422;48.286;8.484;2022-10-30T17:28:31;7.43;;;3.25;;
39738;SDS011;25422;48.286;8.484;2022-10-30T17:33:46;5.05;;;2.20;;
39738;SDS011;25422;48.286;8.484;2022-10-30T17:36:27;9.50;;;2.70;;
39738;SDS011;25422;48.286;8.484;2022-10-30T17:38:53;13.45;;;3.90;;
39738;SDS011;25422;48.286;8.484;2022-10-30T17:41:18;7.05;;;2.92;;
39738;SDS011;25422;48.286;8.484;2022-10-30T17:43:47;7.88;;;2.67;;
39738;SDS011;25422;48.286;8.484;2022-10-30T17:46:15;7.95;;;2.90;;
39738;SDS011;25422;48.286;8.484;2022-10-30T17:48:40;12.88;;;2.97;;
39738;SDS011;25422;48.286;8.484;2022-10-30T17:51:13;7.55;;;2.78;;
39738;SDS011;25422;48.286;8.484;2022-10-30T17:53:39;6.88;;;3.05;;
39738;SDS011;25422;48.286;8.484;2022-10-30T17:56:09;7.78;;;3.03;;
39738;SDS011;25422;48.286;8.484;2022-10-30T17:58:38;10.90;;;3.20;;
39738;SDS011;25422;48.286;8.484;2022-10-30T18:01:04;7.43;;;3.00;;
39738;SDS011;25422;48.286;8.484;2022-10-30T18:03:29;8.52;;;3.13;;
39738;SDS011;25422;48.286;8.484;2022-10-30T18:05:55;6.72;;;3.00;;
39738;SDS011;25422;48.286;8.484;2022-10-30T18:08:20;6.72;;;3.47;;